sensor_id;sensor_type;location;lat;lon;timestamp;temperature;humidity
50758;DHT22;36732;47.980;11.652;2022-12-18T00:00:45;2.60;59.60
50758;DHT22;36732;47.980;11.652;2022-12-18T00:03:14;2.60;60.00
50758;DHT22;36732;47.980;11.652;2022-12-18T00:05:50;2.60;59.50
50758;DHT22;36732;47.980;11.652;2022-12-18T00:08:18;2.60;59.40
50758;DHT22;36732;47.980;11.652;2022-12-18T00:10:45;2.60;59.50
50758;DHT22;36732;47.980;11.652;2022-12-18T00:13:11;2.60;59.50
50758;DHT22;36732;47.980;11.652;2022-12-18T00:15:38;2.60;59.50
50758;DHT22;36732;47.980;11.652;2022-12-18T00:18:05;2.60;59.50
50758;DHT22;36732;47.980;11.652;2022-12-18T00:20:35;2.60;59.40
50758;DHT22;36732;47.980;11.652;2022-12-18T00:23:05;2.60;59.40
50758;DHT22;36732;47.980;11.652;2022-12-18T00:25:33;2.60;59.20
50758;DHT22;36732;47.980;11.652;2022-12-18T00:28:00;2.60;59.20
50758;DHT22;36732;47.980;11.652;2022-12-18T00:30:26;2.60;59.20
50758;DHT22;36732;47.980;11.652;2022-12-18T00:32:52;2.60;59.20
50758;DHT22;36732;47.980;11.652;2022-12-18T00:35:18;2.60;59.20
50758;DHT22;36732;47.980;11.652;2022-12-18T00:37:44;2.60;59.30
50758;DHT22;36732;47.980;11.652;2022-12-18T00:40:10;2.60;59.30
50758;DHT22;36732;47.980;11.652;2022-12-18T00:42:36;2.50;59.30
50758;DHT22;36732;47.980;11.652;2022-12-18T00:45:20;2.60;59.00
50758;DHT22;36732;47.980;11.652;2022-12-18T00:47:45;2.50;58.90
50758;DHT22;36732;47.980;11.652;2022-12-18T00:50:11;2.50;59.00
50758;DHT22;36732;47.980;11.652;2022-12-18T00:52:37;2.50;59.10
50758;DHT22;36732;47.980;11.652;2022-12-18T00:55:03;2.50;59.10
50758;DHT22;36732;47.980;11.652;2022-12-18T00:57:29;2.50;59.00
50758;DHT22;36732;47.980;11.652;2022-12-18T00:59:55;2.50;58.90
50758;DHT22;36732;47.980;11.652;2022-12-18T01:02:21;2.50;59.00
50758;DHT22;36732;47.980;11.652;2022-12-18T01:04:46;2.50;59.00
50758;DHT22;36732;47.980;11.652;2022-12-18T01:07:12;2.50;59.00
50758;DHT22;36732;47.980;11.652;2022-12-18T01:09:38;2.50;58.90
50758;DHT22;36732;47.980;11.652;2022-12-18T01:12:04;2.50;58.90
50758;DHT22;36732;47.980;11.652;2022-12-18T01:14:30;2.50;58.90
50758;DHT22;36732;47.980;11.652;2022-12-18T01:16:55;2.50;59.00
50758;DHT22;36732;47.980;11.652;2022-12-18T01:19:21;2.40;59.60
50758;DHT22;36732;47.980;11.652;2022-12-18T01:21:47;2.40;58.90
50758;DHT22;36732;47.980;11.652;2022-12-18T01:24:12;2.40;58.80
50758;DHT22;36732;47.980;11.652;2022-12-18T01:26:38;2.40;59.30
50758;DHT22;36732;47.980;11.652;2022-12-18T01:29:04;2.40;58.80
50758;DHT22;36732;47.980;11.652;2022-12-18T01:31:32;2.40;58.70
50758;DHT22;36732;47.980;11.652;2022-12-18T01:34:00;2.40;59.40
50758;DHT22;36732;47.980;11.652;2022-12-18T01:36:32;2.40;58.70
50758;DHT22;36732;47.980;11.652;2022-12-18T01:39:02;2.40;59.40
50758;DHT22;36732;47.980;11.652;2022-12-18T01:41:38;2.40;58.70
50758;DHT22;36732;47.980;11.652;2022-12-18T01:47:36;2.40;58.60
50758;DHT22;36732;47.980;11.652;2022-12-18T01:52:55;2.40;58.70
50758;DHT22;36732;47.980;11.652;2022-12-18T01:55:24;2.30;58.70
50758;DHT22;36732;47.980;11.652;2022-12-18T01:57:54;2.30;58.70
50758;DHT22;36732;47.980;11.652;2022-12-18T02:00:22;2.30;58.80
50758;DHT22;36732;47.980;11.652;2022-12-18T02:02:48;2.30;58.70
50758;DHT22;36732;47.980;11.652;2022-12-18T02:05:18;2.30;58.70
50758;DHT22;36732;47.980;11.652;2022-12-18T02:10:53;2.30;58.50
50758;DHT22;36732;47.980;11.652;2022-12-18T02:17:01;2.30;58.40
50758;DHT22;36732;47.980;11.652;2022-12-18T02:25:30;2.30;58.60
50758;DHT22;36732;47.980;11.652;2022-12-18T02:28:20;2.30;58.60
50758;DHT22;36732;47.980;11.652;2022-12-18T02:30:50;2.30;58.50
50758;DHT22;36732;47.980;11.652;2022-12-18T02:33:19;2.30;58.50
50758;DHT22;36732;47.980;11.652;2022-12-18T02:35:47;2.20;58.50
50758;DHT22;36732;47.980;11.652;2022-12-18T02:38:13;2.20;58.60
50758;DHT22;36732;47.980;11.652;2022-12-18T02:40:40;2.20;58.50
50758;DHT22;36732;47.980;11.652;2022-12-18T02:43:12;2.20;58.40
50758;DHT22;36732;47.980;11.652;2022-12-18T02:45:52;2.20;58.20
50758;DHT22;36732;47.980;11.652;2022-12-18T02:48:24;2.20;58.50
50758;DHT22;36732;47.980;11.652;2022-12-18T02:51:18;2.20;58.60
50758;DHT22;36732;47.980;11.652;2022-12-18T02:54:13;2.20;58.60
50758;DHT22;36732;47.980;11.652;2022-12-18T02:56:51;2.10;58.50
50758;DHT22;36732;47.980;11.652;2022-12-18T02:59:26;2.10;58.40
50758;DHT22;36732;47.980;11.652;2022-12-18T03:04:55;2.10;58.60
50758;DHT22;36732;47.980;11.652;2022-12-18T03:07:38;2.10;58.50
50758;DHT22;36732;47.980;11.652;2022-12-18T03:10:09;2.10;58.50
50758;DHT22;36732;47.980;11.652;2022-12-18T03:12:47;2.10;58.50
50758;DHT22;36732;47.980;11.652;2022-12-18T03:15:25;2.10;58.50
50758;DHT22;36732;47.980;11.652;2022-12-18T03:18:00;2.10;58.50
50758;DHT22;36732;47.980;11.652;2022-12-18T03:20:30;2.10;58.60
50758;DHT22;36732;47.980;11.652;2022-12-18T03:23:06;2.10;58.70
50758;DHT22;36732;47.980;11.652;2022-12-18T03:25:37;2.10;58.60
50758;DHT22;36732;47.980;11.652;2022-12-18T03:28:05;2.10;58.70
50758;DHT22;36732;47.980;11.652;2022-12-18T03:30:37;2.10;58.60
50758;DHT22;36732;47.980;11.652;2022-12-18T03:33:24;2.10;58.70
50758;DHT22;36732;47.980;11.652;2022-12-18T03:35:52;2.10;58.60
50758;DHT22;36732;47.980;11.652;2022-12-18T03:38:17;2.10;58.70
50758;DHT22;36732;47.980;11.652;2022-12-18T03:46:40;2.10;58.60
50758;DHT22;36732;47.980;11.652;2022-12-18T03:52:26;2.10;58.30
50758;DHT22;36732;47.980;11.652;2022-12-18T03:54:54;2.10;58.40
50758;DHT22;36732;47.980;11.652;2022-12-18T03:57:23;2.10;58.60
50758;DHT22;36732;47.980;11.652;2022-12-18T03:59:56;2.10;58.50
50758;DHT22;36732;47.980;11.652;2022-12-18T04:02:25;2.10;58.60
50758;DHT22;36732;47.980;11.652;2022-12-18T04:04:53;2.10;58.70
50758;DHT22;36732;47.980;11.652;2022-12-18T04:07:22;2.10;58.50
50758;DHT22;36732;47.980;11.652;2022-12-18T04:09:49;2.10;58.60
50758;DHT22;36732;47.980;11.652;2022-12-18T04:12:15;2.10;58.60
50758;DHT22;36732;47.980;11.652;2022-12-18T04:14:41;2.10;58.60
50758;DHT22;36732;47.980;11.652;2022-12-18T04:17:07;2.10;58.60
50758;DHT22;36732;47.980;11.652;2022-12-18T04:19:32;2.10;58.60
50758;DHT22;36732;47.980;11.652;2022-12-18T04:21:58;2.10;58.60
50758;DHT22;36732;47.980;11.652;2022-12-18T04:24:24;2.10;58.60
50758;DHT22;36732;47.980;11.652;2022-12-18T04:26:49;2.10;58.60
50758;DHT22;36732;47.980;11.652;2022-12-18T04:29:15;2.10;58.60
50758;DHT22;36732;47.980;11.652;2022-12-18T04:31:41;2.10;58.60
50758;DHT22;36732;47.980;11.652;2022-12-18T04:34:07;2.10;58.60
50758;DHT22;36732;47.980;11.652;2022-12-18T04:36:32;2.10;58.60
50758;DHT22;36732;47.980;11.652;2022-12-18T04:38:58;2.10;58.50
50758;DHT22;36732;47.980;11.652;2022-12-18T04:41:24;2.10;58.60
50758;DHT22;36732;47.980;11.652;2022-12-18T04:43:49;2.10;58.60
50758;DHT22;36732;47.980;11.652;2022-12-18T04:46:15;2.10;58.60
50758;DHT22;36732;47.980;11.652;2022-12-18T04:48:41;2.10;58.60
50758;DHT22;36732;47.980;11.652;2022-12-18T04:51:07;2.10;58.80
50758;DHT22;36732;47.980;11.652;2022-12-18T04:53:33;2.10;58.70
50758;DHT22;36732;47.980;11.652;2022-12-18T04:56:10;2.10;58.60
50758;DHT22;36732;47.980;11.652;2022-12-18T04:58:38;2.10;58.60
50758;DHT22;36732;47.980;11.652;2022-12-18T05:01:05;2.10;58.60
50758;DHT22;36732;47.980;11.652;2022-12-18T05:03:31;2.10;58.60
50758;DHT22;36732;47.980;11.652;2022-12-18T05:05:57;2.10;58.50
50758;DHT22;36732;47.980;11.652;2022-12-18T05:08:23;2.10;58.50
50758;DHT22;36732;47.980;11.652;2022-12-18T05:10:48;2.10;58.60
50758;DHT22;36732;47.980;11.652;2022-12-18T05:13:14;2.10;58.60
50758;DHT22;36732;47.980;11.652;2022-12-18T05:15:40;2.10;58.50
50758;DHT22;36732;47.980;11.652;2022-12-18T05:18:07;2.10;58.50
50758;DHT22;36732;47.980;11.652;2022-12-18T05:20:33;2.10;58.50
50758;DHT22;36732;47.980;11.652;2022-12-18T05:22:59;2.10;58.60
50758;DHT22;36732;47.980;11.652;2022-12-18T05:25:25;2.10;58.60
50758;DHT22;36732;47.980;11.652;2022-12-18T05:27:50;2.10;58.50
50758;DHT22;36732;47.980;11.652;2022-12-18T05:30:16;2.10;58.40
50758;DHT22;36732;47.980;11.652;2022-12-18T05:32:42;2.00;58.30
50758;DHT22;36732;47.980;11.652;2022-12-18T05:35:10;2.00;58.10
50758;DHT22;36732;47.980;11.652;2022-12-18T05:37:37;2.10;58.10
50758;DHT22;36732;47.980;11.652;2022-12-18T05:40:04;2.00;58.10
50758;DHT22;36732;47.980;11.652;2022-12-18T05:42:30;2.00;58.10
50758;DHT22;36732;47.980;11.652;2022-12-18T05:44:56;2.00;58.00
50758;DHT22;36732;47.980;11.652;2022-12-18T05:47:22;2.00;58.00
50758;DHT22;36732;47.980;11.652;2022-12-18T05:49:47;2.00;58.10
50758;DHT22;36732;47.980;11.652;2022-12-18T05:52:13;2.00;58.10
50758;DHT22;36732;47.980;11.652;2022-12-18T05:54:39;2.00;58.20
50758;DHT22;36732;47.980;11.652;2022-12-18T05:57:05;2.00;58.30
50758;DHT22;36732;47.980;11.652;2022-12-18T05:59:31;1.90;58.30
50758;DHT22;36732;47.980;11.652;2022-12-18T06:01:57;1.90;58.30
50758;DHT22;36732;47.980;11.652;2022-12-18T06:04:22;1.90;58.60
50758;DHT22;36732;47.980;11.652;2022-12-18T06:06:48;2.00;58.30
50758;DHT22;36732;47.980;11.652;2022-12-18T06:09:14;2.00;58.30
50758;DHT22;36732;47.980;11.652;2022-12-18T06:11:39;1.90;58.20
50758;DHT22;36732;47.980;11.652;2022-12-18T06:14:06;1.90;58.20
50758;DHT22;36732;47.980;11.652;2022-12-18T06:16:32;1.90;58.00
50758;DHT22;36732;47.980;11.652;2022-12-18T06:18:59;2.00;58.10
50758;DHT22;36732;47.980;11.652;2022-12-18T06:21:27;1.90;58.10
50758;DHT22;36732;47.980;11.652;2022-12-18T06:23:53;1.90;58.10
50758;DHT22;36732;47.980;11.652;2022-12-18T06:26:19;1.90;58.10
50758;DHT22;36732;47.980;11.652;2022-12-18T06:28:45;1.90;58.00
50758;DHT22;36732;47.980;11.652;2022-12-18T06:31:11;1.90;57.90
50758;DHT22;36732;47.980;11.652;2022-12-18T06:33:38;1.90;58.00
50758;DHT22;36732;47.980;11.652;2022-12-18T06:36:06;1.90;57.90
50758;DHT22;36732;47.980;11.652;2022-12-18T06:38:34;1.90;58.00
50758;DHT22;36732;47.980;11.652;2022-12-18T06:41:10;1.90;58.00
50758;DHT22;36732;47.980;11.652;2022-12-18T06:43:37;1.90;58.00
50758;DHT22;36732;47.980;11.652;2022-12-18T06:46:04;1.90;58.10
50758;DHT22;36732;47.980;11.652;2022-12-18T06:48:30;1.90;58.00
50758;DHT22;36732;47.980;11.652;2022-12-18T06:50:56;1.90;57.80
50758;DHT22;36732;47.980;11.652;2022-12-18T06:53:22;1.90;58.00
50758;DHT22;36732;47.980;11.652;2022-12-18T06:55:48;1.90;58.00
50758;DHT22;36732;47.980;11.652;2022-12-18T06:58:14;1.90;58.10
50758;DHT22;36732;47.980;11.652;2022-12-18T07:00:40;1.90;58.00
50758;DHT22;36732;47.980;11.652;2022-12-18T07:03:06;1.90;58.00
50758;DHT22;36732;47.980;11.652;2022-12-18T07:05:32;1.90;58.00
50758;DHT22;36732;47.980;11.652;2022-12-18T07:07:58;1.90;58.00
50758;DHT22;36732;47.980;11.652;2022-12-18T07:10:24;1.90;57.70
50758;DHT22;36732;47.980;11.652;2022-12-18T07:12:50;1.90;57.70
50758;DHT22;36732;47.980;11.652;2022-12-18T07:15:16;1.90;57.80
50758;DHT22;36732;47.980;11.652;2022-12-18T07:17:42;1.90;57.80
50758;DHT22;36732;47.980;11.652;2022-12-18T07:20:08;1.90;57.80
50758;DHT22;36732;47.980;11.652;2022-12-18T07:22:34;1.90;57.80
50758;DHT22;36732;47.980;11.652;2022-12-18T07:25:00;1.90;57.80
50758;DHT22;36732;47.980;11.652;2022-12-18T07:27:26;1.90;57.70
50758;DHT22;36732;47.980;11.652;2022-12-18T07:29:51;1.90;57.70
50758;DHT22;36732;47.980;11.652;2022-12-18T07:32:17;1.90;57.70
50758;DHT22;36732;47.980;11.652;2022-12-18T07:34:43;1.90;57.90
50758;DHT22;36732;47.980;11.652;2022-12-18T07:37:09;1.90;57.90
50758;DHT22;36732;47.980;11.652;2022-12-18T07:39:36;1.90;57.80
50758;DHT22;36732;47.980;11.652;2022-12-18T07:42:01;1.90;57.70
50758;DHT22;36732;47.980;11.652;2022-12-18T07:44:45;1.90;58.30
50758;DHT22;36732;47.980;11.652;2022-12-18T07:47:11;1.90;57.60
50758;DHT22;36732;47.980;11.652;2022-12-18T07:49:37;1.80;58.00
50758;DHT22;36732;47.980;11.652;2022-12-18T07:52:03;1.80;57.90
50758;DHT22;36732;47.980;11.652;2022-12-18T07:54:28;1.80;58.30
50758;DHT22;36732;47.980;11.652;2022-12-18T07:56:54;1.90;58.10
50758;DHT22;36732;47.980;11.652;2022-12-18T07:59:20;1.80;58.00
50758;DHT22;36732;47.980;11.652;2022-12-18T08:01:46;1.80;58.00
50758;DHT22;36732;47.980;11.652;2022-12-18T08:04:11;1.80;58.10
50758;DHT22;36732;47.980;11.652;2022-12-18T08:06:37;1.80;58.10
50758;DHT22;36732;47.980;11.652;2022-12-18T08:09:03;1.80;58.00
50758;DHT22;36732;47.980;11.652;2022-12-18T08:11:29;1.80;58.00
50758;DHT22;36732;47.980;11.652;2022-12-18T08:13:55;1.80;58.00
50758;DHT22;36732;47.980;11.652;2022-12-18T08:16:22;1.80;58.00
50758;DHT22;36732;47.980;11.652;2022-12-18T08:18:49;1.80;58.00
50758;DHT22;36732;47.980;11.652;2022-12-18T08:21:23;1.80;58.10
50758;DHT22;36732;47.980;11.652;2022-12-18T08:23:50;1.90;58.60
50758;DHT22;36732;47.980;11.652;2022-12-18T08:26:17;1.90;57.90
50758;DHT22;36732;47.980;11.652;2022-12-18T08:28:43;1.90;57.70
50758;DHT22;36732;47.980;11.652;2022-12-18T08:31:09;1.90;58.00
50758;DHT22;36732;47.980;11.652;2022-12-18T08:33:35;1.80;58.10
50758;DHT22;36732;47.980;11.652;2022-12-18T08:36:03;1.80;58.20
50758;DHT22;36732;47.980;11.652;2022-12-18T08:38:31;1.80;58.20
50758;DHT22;36732;47.980;11.652;2022-12-18T08:41:04;1.80;58.10
50758;DHT22;36732;47.980;11.652;2022-12-18T08:43:31;1.80;57.80
50758;DHT22;36732;47.980;11.652;2022-12-18T08:46:19;1.80;57.80
50758;DHT22;36732;47.980;11.652;2022-12-18T08:48:46;1.90;58.00
50758;DHT22;36732;47.980;11.652;2022-12-18T08:51:13;1.90;57.90
50758;DHT22;36732;47.980;11.652;2022-12-18T08:53:41;1.80;57.90
50758;DHT22;36732;47.980;11.652;2022-12-18T08:56:07;1.80;58.00
50758;DHT22;36732;47.980;11.652;2022-12-18T08:58:33;1.80;57.80
50758;DHT22;36732;47.980;11.652;2022-12-18T09:01:03;1.80;57.90
50758;DHT22;36732;47.980;11.652;2022-12-18T09:03:30;1.80;58.00
50758;DHT22;36732;47.980;11.652;2022-12-18T09:05:56;1.80;58.00
50758;DHT22;36732;47.980;11.652;2022-12-18T09:08:22;1.80;58.00
50758;DHT22;36732;47.980;11.652;2022-12-18T09:10:49;1.80;58.00
50758;DHT22;36732;47.980;11.652;2022-12-18T09:13:16;1.80;58.10
50758;DHT22;36732;47.980;11.652;2022-12-18T09:15:43;1.80;58.20
50758;DHT22;36732;47.980;11.652;2022-12-18T09:18:15;1.80;58.10
50758;DHT22;36732;47.980;11.652;2022-12-18T09:20:41;1.80;58.10
50758;DHT22;36732;47.980;11.652;2022-12-18T09:23:07;1.80;58.10
50758;DHT22;36732;47.980;11.652;2022-12-18T09:25:35;1.80;58.00
50758;DHT22;36732;47.980;11.652;2022-12-18T09:28:09;1.80;58.20
50758;DHT22;36732;47.980;11.652;2022-12-18T09:30:40;1.80;58.20
50758;DHT22;36732;47.980;11.652;2022-12-18T09:33:08;1.90;58.20
50758;DHT22;36732;47.980;11.652;2022-12-18T09:35:37;1.90;58.10
50758;DHT22;36732;47.980;11.652;2022-12-18T09:38:04;1.90;58.00
50758;DHT22;36732;47.980;11.652;2022-12-18T09:40:35;1.90;57.70
50758;DHT22;36732;47.980;11.652;2022-12-18T09:43:06;1.90;57.60
50758;DHT22;36732;47.980;11.652;2022-12-18T09:45:40;1.80;57.70
50758;DHT22;36732;47.980;11.652;2022-12-18T09:48:18;1.80;57.80
50758;DHT22;36732;47.980;11.652;2022-12-18T09:50:50;1.80;58.00
50758;DHT22;36732;47.980;11.652;2022-12-18T09:53:21;1.80;57.80
50758;DHT22;36732;47.980;11.652;2022-12-18T09:55:50;1.80;57.70
50758;DHT22;36732;47.980;11.652;2022-12-18T09:58:30;1.80;57.90
50758;DHT22;36732;47.980;11.652;2022-12-18T10:01:23;1.80;57.50
50758;DHT22;36732;47.980;11.652;2022-12-18T10:03:49;1.80;57.70
50758;DHT22;36732;47.980;11.652;2022-12-18T10:15:23;1.80;57.40
50758;DHT22;36732;47.980;11.652;2022-12-18T10:18:19;1.80;57.60
50758;DHT22;36732;47.980;11.652;2022-12-18T10:21:13;1.80;57.50
50758;DHT22;36732;47.980;11.652;2022-12-18T10:26:31;1.80;57.70
50758;DHT22;36732;47.980;11.652;2022-12-18T10:28:58;1.80;57.80
50758;DHT22;36732;47.980;11.652;2022-12-18T10:31:25;1.80;57.70
50758;DHT22;36732;47.980;11.652;2022-12-18T10:33:53;1.80;57.80
50758;DHT22;36732;47.980;11.652;2022-12-18T10:36:20;1.80;57.80
50758;DHT22;36732;47.980;11.652;2022-12-18T10:38:46;1.80;57.60
50758;DHT22;36732;47.980;11.652;2022-12-18T10:43:43;1.80;57.70
50758;DHT22;36732;47.980;11.652;2022-12-18T10:54:03;1.80;58.00
50758;DHT22;36732;47.980;11.652;2022-12-18T10:56:31;1.80;58.00
50758;DHT22;36732;47.980;11.652;2022-12-18T10:59:00;1.80;58.10
50758;DHT22;36732;47.980;11.652;2022-12-18T11:01:28;1.80;58.10
50758;DHT22;36732;47.980;11.652;2022-12-18T11:04:33;1.80;58.10
50758;DHT22;36732;47.980;11.652;2022-12-18T11:07:07;1.80;58.20
50758;DHT22;36732;47.980;11.652;2022-12-18T11:09:37;1.80;58.40
50758;DHT22;36732;47.980;11.652;2022-12-18T11:12:15;1.80;58.40
50758;DHT22;36732;47.980;11.652;2022-12-18T11:14:47;1.90;58.60
50758;DHT22;36732;47.980;11.652;2022-12-18T11:17:19;1.90;58.50
50758;DHT22;36732;47.980;11.652;2022-12-18T11:19:53;1.90;58.40
50758;DHT22;36732;47.980;11.652;2022-12-18T11:22:21;1.90;58.30
50758;DHT22;36732;47.980;11.652;2022-12-18T11:24:59;1.90;58.40
50758;DHT22;36732;47.980;11.652;2022-12-18T11:27:27;2.00;58.00
50758;DHT22;36732;47.980;11.652;2022-12-18T11:30:07;2.00;57.90
50758;DHT22;36732;47.980;11.652;2022-12-18T11:32:38;2.00;57.90
50758;DHT22;36732;47.980;11.652;2022-12-18T11:37:58;2.00;57.80
50758;DHT22;36732;47.980;11.652;2022-12-18T11:40:36;2.00;57.70
50758;DHT22;36732;47.980;11.652;2022-12-18T11:43:16;2.00;57.60
50758;DHT22;36732;47.980;11.652;2022-12-18T11:45:53;2.00;58.10
50758;DHT22;36732;47.980;11.652;2022-12-18T11:48:25;2.00;57.40
50758;DHT22;36732;47.980;11.652;2022-12-18T11:50:55;1.90;57.50
50758;DHT22;36732;47.980;11.652;2022-12-18T11:53:24;2.00;57.70
50758;DHT22;36732;47.980;11.652;2022-12-18T12:01:46;1.90;57.90
50758;DHT22;36732;47.980;11.652;2022-12-18T12:07:31;2.00;57.90
50758;DHT22;36732;47.980;11.652;2022-12-18T12:19:13;2.00;57.80
50758;DHT22;36732;47.980;11.652;2022-12-18T12:21:58;2.00;57.70
50758;DHT22;36732;47.980;11.652;2022-12-18T12:39:35;2.00;57.80
50758;DHT22;36732;47.980;11.652;2022-12-18T12:42:06;2.00;58.50
50758;DHT22;36732;47.980;11.652;2022-12-18T12:45:18;2.00;57.90
50758;DHT22;36732;47.980;11.652;2022-12-18T12:47:50;2.00;57.80
50758;DHT22;36732;47.980;11.652;2022-12-18T12:50:19;2.00;57.80
50758;DHT22;36732;47.980;11.652;2022-12-18T12:52:49;2.00;57.60
50758;DHT22;36732;47.980;11.652;2022-12-18T12:55:22;2.00;57.60
50758;DHT22;36732;47.980;11.652;2022-12-18T13:00:40;2.00;57.60
50758;DHT22;36732;47.980;11.652;2022-12-18T13:06:19;2.00;57.50
50758;DHT22;36732;47.980;11.652;2022-12-18T13:08:57;2.00;57.70
50758;DHT22;36732;47.980;11.652;2022-12-18T13:11:47;2.00;57.70
50758;DHT22;36732;47.980;11.652;2022-12-18T13:14:40;2.00;57.60
50758;DHT22;36732;47.980;11.652;2022-12-18T13:17:16;2.00;57.90
50758;DHT22;36732;47.980;11.652;2022-12-18T13:19:42;2.00;57.80
50758;DHT22;36732;47.980;11.652;2022-12-18T13:22:23;2.00;57.80
50758;DHT22;36732;47.980;11.652;2022-12-18T13:24:53;2.00;57.80
50758;DHT22;36732;47.980;11.652;2022-12-18T13:27:45;2.00;57.90
50758;DHT22;36732;47.980;11.652;2022-12-18T13:41:26;2.00;58.80
50758;DHT22;36732;47.980;11.652;2022-12-18T13:44:11;2.00;58.20
50758;DHT22;36732;47.980;11.652;2022-12-18T13:46:44;2.00;58.20
50758;DHT22;36732;47.980;11.652;2022-12-18T13:49:20;2.10;58.20
50758;DHT22;36732;47.980;11.652;2022-12-18T13:51:56;2.10;58.40
50758;DHT22;36732;47.980;11.652;2022-12-18T13:54:34;2.10;58.30
50758;DHT22;36732;47.980;11.652;2022-12-18T13:57:02;2.10;58.30
50758;DHT22;36732;47.980;11.652;2022-12-18T13:59:39;2.10;58.40
50758;DHT22;36732;47.980;11.652;2022-12-18T14:02:30;2.10;58.30
50758;DHT22;36732;47.980;11.652;2022-12-18T14:04:57;2.10;58.30
50758;DHT22;36732;47.980;11.652;2022-12-18T14:07:24;2.20;58.30
50758;DHT22;36732;47.980;11.652;2022-12-18T14:10:00;2.20;58.30
50758;DHT22;36732;47.980;11.652;2022-12-18T14:12:29;2.20;58.30
50758;DHT22;36732;47.980;11.652;2022-12-18T14:15:36;2.20;58.20
50758;DHT22;36732;47.980;11.652;2022-12-18T14:21:02;2.20;58.10
50758;DHT22;36732;47.980;11.652;2022-12-18T14:23:35;2.20;58.00
50758;DHT22;36732;47.980;11.652;2022-12-18T14:28:46;2.20;57.90
50758;DHT22;36732;47.980;11.652;2022-12-18T14:31:26;2.20;57.90
50758;DHT22;36732;47.980;11.652;2022-12-18T14:33:53;2.20;57.80
50758;DHT22;36732;47.980;11.652;2022-12-18T14:36:27;2.20;58.50
50758;DHT22;36732;47.980;11.652;2022-12-18T14:38:58;2.20;57.70
50758;DHT22;36732;47.980;11.652;2022-12-18T14:41:24;2.20;57.80
50758;DHT22;36732;47.980;11.652;2022-12-18T14:43:53;2.20;57.80
50758;DHT22;36732;47.980;11.652;2022-12-18T14:49:24;2.20;57.70
50758;DHT22;36732;47.980;11.652;2022-12-18T14:51:54;2.20;57.60
50758;DHT22;36732;47.980;11.652;2022-12-18T14:54:46;2.20;57.60
50758;DHT22;36732;47.980;11.652;2022-12-18T14:59:49;2.20;57.40
50758;DHT22;36732;47.980;11.652;2022-12-18T15:02:20;2.20;57.50
50758;DHT22;36732;47.980;11.652;2022-12-18T15:04:46;2.20;57.50
50758;DHT22;36732;47.980;11.652;2022-12-18T15:07:19;2.20;57.50
50758;DHT22;36732;47.980;11.652;2022-12-18T15:20:49;2.10;57.30
50758;DHT22;36732;47.980;11.652;2022-12-18T15:26:20;2.10;57.40
50758;DHT22;36732;47.980;11.652;2022-12-18T15:28:52;2.10;57.50
50758;DHT22;36732;47.980;11.652;2022-12-18T15:31:35;2.10;58.00
50758;DHT22;36732;47.980;11.652;2022-12-18T15:34:10;2.10;57.20
50758;DHT22;36732;47.980;11.652;2022-12-18T15:36:39;2.10;57.30
50758;DHT22;36732;47.980;11.652;2022-12-18T15:39:06;2.10;57.40
50758;DHT22;36732;47.980;11.652;2022-12-18T15:41:34;2.10;57.40
50758;DHT22;36732;47.980;11.652;2022-12-18T15:44:00;2.10;57.30
50758;DHT22;36732;47.980;11.652;2022-12-18T15:46:26;2.10;57.30
50758;DHT22;36732;47.980;11.652;2022-12-18T15:48:56;2.10;57.30
50758;DHT22;36732;47.980;11.652;2022-12-18T15:51:33;2.10;57.30
50758;DHT22;36732;47.980;11.652;2022-12-18T15:54:03;2.10;57.30
50758;DHT22;36732;47.980;11.652;2022-12-18T15:56:30;2.10;57.10
50758;DHT22;36732;47.980;11.652;2022-12-18T15:59:17;2.10;57.20
50758;DHT22;36732;47.980;11.652;2022-12-18T16:01:47;2.10;57.30
50758;DHT22;36732;47.980;11.652;2022-12-18T16:04:15;2.00;57.20
50758;DHT22;36732;47.980;11.652;2022-12-18T16:06:42;2.00;57.20
50758;DHT22;36732;47.980;11.652;2022-12-18T16:09:08;2.00;57.30
50758;DHT22;36732;47.980;11.652;2022-12-18T16:11:36;2.00;57.20
50758;DHT22;36732;47.980;11.652;2022-12-18T16:16:48;2.00;57.10
50758;DHT22;36732;47.980;11.652;2022-12-18T16:19:16;2.10;57.40
50758;DHT22;36732;47.980;11.652;2022-12-18T16:21:42;2.10;57.30
50758;DHT22;36732;47.980;11.652;2022-12-18T16:24:23;2.00;57.10
50758;DHT22;36732;47.980;11.652;2022-12-18T16:26:50;2.00;56.80
50758;DHT22;36732;47.980;11.652;2022-12-18T16:29:18;2.00;57.00
50758;DHT22;36732;47.980;11.652;2022-12-18T16:31:44;2.00;57.10
50758;DHT22;36732;47.980;11.652;2022-12-18T16:36:50;2.00;57.10
50758;DHT22;36732;47.980;11.652;2022-12-18T16:39:17;2.00;57.10
50758;DHT22;36732;47.980;11.652;2022-12-18T16:41:43;2.00;57.10
50758;DHT22;36732;47.980;11.652;2022-12-18T16:44:09;2.00;57.10
50758;DHT22;36732;47.980;11.652;2022-12-18T16:46:36;1.90;57.10
50758;DHT22;36732;47.980;11.652;2022-12-18T16:49:02;2.00;57.10
50758;DHT22;36732;47.980;11.652;2022-12-18T16:51:29;1.90;57.10
50758;DHT22;36732;47.980;11.652;2022-12-18T16:53:55;2.00;57.10
50758;DHT22;36732;47.980;11.652;2022-12-18T16:56:21;2.00;57.00
50758;DHT22;36732;47.980;11.652;2022-12-18T16:58:53;1.90;56.90
50758;DHT22;36732;47.980;11.652;2022-12-18T17:01:21;1.90;56.90
50758;DHT22;36732;47.980;11.652;2022-12-18T17:03:54;1.90;56.90
50758;DHT22;36732;47.980;11.652;2022-12-18T17:06:21;1.90;56.90
50758;DHT22;36732;47.980;11.652;2022-12-18T17:08:48;1.90;56.90
50758;DHT22;36732;47.980;11.652;2022-12-18T17:11:14;1.90;57.00
50758;DHT22;36732;47.980;11.652;2022-12-18T17:13:40;1.90;56.90
50758;DHT22;36732;47.980;11.652;2022-12-18T17:16:06;1.90;56.90
50758;DHT22;36732;47.980;11.652;2022-12-18T17:18:33;1.90;56.90
50758;DHT22;36732;47.980;11.652;2022-12-18T17:21:00;1.90;56.90
50758;DHT22;36732;47.980;11.652;2022-12-18T17:23:27;1.90;56.90
50758;DHT22;36732;47.980;11.652;2022-12-18T17:25:54;1.90;56.90
50758;DHT22;36732;47.980;11.652;2022-12-18T17:28:22;1.90;56.90
50758;DHT22;36732;47.980;11.652;2022-12-18T17:30:48;1.90;56.90
50758;DHT22;36732;47.980;11.652;2022-12-18T17:33:14;1.90;56.90
50758;DHT22;36732;47.980;11.652;2022-12-18T17:35:39;1.90;56.90
50758;DHT22;36732;47.980;11.652;2022-12-18T17:38:05;1.90;56.90
50758;DHT22;36732;47.980;11.652;2022-12-18T17:40:34;1.90;56.90
50758;DHT22;36732;47.980;11.652;2022-12-18T17:43:00;1.90;56.90
50758;DHT22;36732;47.980;11.652;2022-12-18T17:45:26;1.90;56.90
50758;DHT22;36732;47.980;11.652;2022-12-18T17:47:51;1.90;57.00
50758;DHT22;36732;47.980;11.652;2022-12-18T17:50:18;1.90;57.00
50758;DHT22;36732;47.980;11.652;2022-12-18T17:52:43;1.90;56.90
50758;DHT22;36732;47.980;11.652;2022-12-18T17:55:09;1.90;56.90
50758;DHT22;36732;47.980;11.652;2022-12-18T17:57:35;1.80;56.90
50758;DHT22;36732;47.980;11.652;2022-12-18T18:00:02;1.80;56.90
50758;DHT22;36732;47.980;11.652;2022-12-18T18:02:28;1.80;56.90